Time;durP1;ratioP1;P1;durP2;ratioP2;P2;SDS_P1;SDS_P2;PMS_P1;PMS_P2;Temp;Humidity;BMP_temperature;BMP_pressure;BME280_temperature;BME280_humidity;BME280_pressure;Samples;Min_cycle;Max_cycle;Signal;HPM_P1;HPM_P2
2022/07/27 13:36:41;;;;;;;0.68;0.40;;;26.50;86.60;;;;;;5111042;27;20448;-88
2022/07/27 13:39:08;;;;;;;1.45;0.50;;;25.70;83.10;;;;;;5097601;28;20535;-88
2022/07/27 13:41:34;;;;;;;1.52;0.70;;;25.20;84.10;;;;;;5100277;28;20028;-89
2022/07/27 13:44:01;;;;;;;1.23;0.35;;;24.80;85.40;;;;;;5076843;28;20028;-88
2022/07/27 13:46:26;;;;;;;0.70;0.30;;;24.60;86.40;;;;;;5095988;28;20012;-86
2022/07/27 13:48:52;;;;;;;0.90;0.40;;;24.40;86.90;;;;;;5100089;28;20538;-88
2022/07/27 13:51:17;;;;;;;2.90;0.52;;;24.20;87.50;;;;;;5088590;28;20957;-87
2022/07/27 13:53:43;;;;;;;1.25;0.45;;;24.20;88.10;;;;;;5099185;28;20031;-89
2022/07/27 13:56:09;;;;;;;0.93;0.30;;;24.10;88.50;;;;;;5088790;28;20040;-88
2022/07/27 13:58:36;;;;;;;1.80;0.40;;;24.00;88.70;;;;;;5097812;28;20454;-87
2022/07/27 14:01:02;;;;;;;1.65;0.52;;;24.00;88.90;;;;;;5098834;28;20024;-87
2022/07/27 14:03:27;;;;;;;1.30;0.50;;;24.10;89.00;;;;;;5087269;28;20032;-87
2022/07/27 14:05:53;;;;;;;2.38;0.60;;;24.20;89.20;;;;;;5086992;28;20032;-89
2022/07/27 14:08:20;;;;;;;1.55;0.60;;;24.40;88.90;;;;;;5101853;28;20108;-89
2022/07/27 14:10:46;;;;;;;0.95;0.50;;;24.70;88.70;;;;;;5092902;28;20020;-89
2022/07/27 14:13:14;;;;;;;2.05;0.60;;;24.90;88.10;;;;;;5107720;28;20023;-87
2022/07/27 14:15:42;;;;;;;0.80;0.40;;;25.00;88.10;;;;;;5106169;28;20028;-86
2022/07/27 14:18:08;;;;;;;1.13;0.50;;;25.30;88.00;;;;;;5103501;28;20038;-89
2022/07/27 14:20:34;;;;;;;1.95;0.60;;;25.90;87.90;;;;;;5087976;28;20107;-87
2022/07/27 14:23:00;;;;;;;2.17;0.50;;;26.40;87.20;;;;;;5096795;28;20529;-89
2022/07/27 14:25:31;;;;;;;2.13;0.60;;;26.40;87.00;;;;;;5109499;28;20026;-90
2022/07/27 14:27:59;;;;;;;1.05;0.50;;;26.30;87.10;;;;;;5110421;28;20047;-89
2022/07/27 14:30:25;;;;;;;1.42;0.40;;;26.10;87.10;;;;;;5108279;28;20474;-90
2022/07/27 14:32:51;;;;;;;0.93;0.45;;;25.90;87.40;;;;;;5099338;28;20025;-89
2022/07/27 14:35:18;;;;;;;0.20;0.20;;;25.80;87.50;;;;;;5094332;28;20055;-89
2022/07/27 14:37:44;;;;;;;1.83;0.60;;;25.70;87.50;;;;;;5090831;28;20397;-90
2022/07/27 14:40:10;;;;;;;1.75;0.50;;;25.50;87.40;;;;;;5074210;28;20462;-88
2022/07/27 14:42:36;;;;;;;0.95;0.40;;;25.30;87.20;;;;;;5090511;28;20020;-87
2022/07/27 14:45:02;;;;;;;1.85;0.40;;;25.20;87.60;;;;;;5085374;28;20020;-87
2022/07/27 14:47:28;;;;;;;2.30;0.50;;;25.10;87.60;;;;;;5074873;28;20029;-87
2022/07/27 14:49:54;;;;;;;0.30;0.20;;;25.00;87.60;;;;;;5075388;28;20028;-87
2022/07/27 14:52:19;;;;;;;1.08;0.30;;;24.90;87.70;;;;;;5074792;28;20441;-85
2022/07/27 14:54:47;;;;;;;0.60;0.30;;;24.80;87.70;;;;;;5084327;28;20103;-90
2022/07/27 14:57:13;;;;;;;1.42;0.40;;;25.00;88.00;;;;;;5080861;28;20107;-89
2022/07/27 14:59:39;;;;;;;3.40;0.52;;;25.70;87.50;;;;;;5093451;28;20032;-89
2022/07/27 15:02:06;;;;;;;1.23;0.50;;;26.20;85.80;;;;;;5093623;28;20020;-88
2022/07/27 15:04:33;;;;;;;0.63;0.40;;;26.20;85.80;;;;;;5094068;28;20036;-92
2022/07/27 15:06:58;;;;;;;1.45;0.50;;;25.90;85.40;;;;;;5093171;28;20642;-91
2022/07/27 15:09:25;;;;;;;1.58;0.40;;;25.60;86.40;;;;;;5093385;28;20056;-91
2022/07/27 15:11:55;;;;;;;1.70;0.40;;;25.30;85.70;;;;;;5094037;28;20012;-90
2022/07/27 15:14:21;;;;;;;1.02;0.40;;;25.10;85.90;;;;;;5093480;28;20040;-90
2022/07/27 15:16:48;;;;;;;1.45;0.50;;;24.80;85.80;;;;;;5094459;28;20048;-90
2022/07/27 15:19:15;;;;;;;2.42;0.60;;;24.50;85.70;;;;;;5092545;28;20043;-89
2022/07/27 15:21:41;;;;;;;1.52;0.40;;;24.30;86.30;;;;;;5092509;28;20115;-91
2022/07/27 15:24:07;;;;;;;1.23;0.50;;;24.20;86.60;;;;;;5089368;28;20111;-90
2022/07/27 15:26:33;;;;;;;1.65;0.47;;;24.10;86.70;;;;;;5074178;28;20082;-91
2022/07/27 15:28:59;;;;;;;1.42;0.40;;;24.10;86.90;;;;;;5094465;28;20027;-90
2022/07/27 15:31:26;;;;;;;1.13;0.50;;;24.00;87.10;;;;;;5089933;28;20026;-89
2022/07/27 15:33:52;;;;;;;0.70;0.40;;;23.90;87.40;;;;;;5073380;28;20074;-91
2022/07/27 15:36:17;;;;;;;0.93;0.40;;;23.80;87.60;;;;;;5072715;28;20048;-91
2022/07/27 15:38:43;;;;;;;1.25;0.60;;;23.70;87.90;;;;;;5092067;28;20106;-89
2022/07/27 15:41:09;;;;;;;0.88;0.50;;;23.60;88.00;;;;;;5092169;28;20059;-89
2022/07/27 15:43:38;;;;;;;1.17;0.40;;;23.50;88.30;;;;;;5091873;28;20020;-92
2022/07/27 15:46:07;;;;;;;2.10;0.45;;;23.50;88.50;;;;;;5088743;28;20028;-93
2022/07/27 15:48:34;;;;;;;0.82;0.38;;;23.40;88.70;;;;;;5070014;28;20017;-91
2022/07/27 15:51:00;;;;;;;2.22;0.60;;;23.40;88.80;;;;;;5079832;28;20035;-93
2022/07/27 15:53:46;;;;;;;1.27;0.50;;;23.20;89.00;;;;;;5093053;28;20020;-92
2022/07/27 15:56:11;;;;;;;1.15;0.60;;;23.20;89.00;;;;;;5073418;28;20105;-91
2022/07/27 15:58:37;;;;;;;1.35;0.52;;;23.20;89.20;;;;;;5074712;28;20017;-88
2022/07/27 16:01:03;;;;;;;1.25;0.65;;;23.20;89.30;;;;;;5071359;28;20082;-87
2022/07/27 16:03:29;;;;;;;2.35;0.63;;;23.20;89.40;;;;;;5085373;28;20020;-94
2022/07/27 16:06:00;;;;;;;0.52;0.38;;;23.30;89.50;;;;;;5077252;28;20063;-90
2022/07/27 16:08:29;;;;;;;0.68;0.40;;;23.40;89.60;;;;;;5092208;28;20144;-92
2022/07/27 16:11:06;;;;;;;2.45;0.63;;;23.30;89.30;;;;;;5085204;28;20056;-92
